createdAt,value
2018-07-04T00:02:35.334Z,21.31
2018-07-04T00:05:22.239Z,21.39
2018-07-04T00:08:08.781Z,21.33
2018-07-04T00:10:55.843Z,21.39
2018-07-04T00:13:42.957Z,21.41
2018-07-04T00:16:29.935Z,21.39
2018-07-04T00:19:16.715Z,21.43
2018-07-04T00:22:03.807Z,21.53
2018-07-04T00:24:50.370Z,21.55
2018-07-04T00:27:37.334Z,21.43
2018-07-04T00:30:24.024Z,21.43
2018-07-04T00:33:11.350Z,21.38
2018-07-04T00:35:58.127Z,21.30
2018-07-04T00:38:44.967Z,21.23
2018-07-04T00:41:31.711Z,21.41
2018-07-04T00:44:18.711Z,21.35
2018-07-04T00:47:05.455Z,21.31
2018-07-04T00:49:52.434Z,21.41
2018-07-04T00:52:39.035Z,21.35
2018-07-04T00:55:25.706Z,21.37
2018-07-04T00:58:12.356Z,21.07
2018-07-04T01:00:59.025Z,21.19
2018-07-04T01:03:45.626Z,21.25
2018-07-04T01:06:32.311Z,21.20
2018-07-04T01:09:19.315Z,21.16
2018-07-04T01:12:05.992Z,21.14
2018-07-04T01:14:53.233Z,21.05
2018-07-04T01:17:39.870Z,21.02
2018-07-04T01:20:31.150Z,20.79
2018-07-04T01:23:17.827Z,20.77
2018-07-04T01:26:04.966Z,20.75
2018-07-04T01:28:51.618Z,20.77
2018-07-04T01:31:38.713Z,20.69
2018-07-04T01:34:25.460Z,20.60
2018-07-04T01:37:12.443Z,20.55
2018-07-04T01:39:59.387Z,20.48
2018-07-04T01:42:46.470Z,20.57
2018-07-04T01:45:33.209Z,20.52
2018-07-04T01:48:20.473Z,20.63
2018-07-04T01:51:07.242Z,20.54
2018-07-04T01:53:53.963Z,20.43
2018-07-04T01:56:40.882Z,20.51
2018-07-04T01:59:27.697Z,20.60
2018-07-04T02:02:14.779Z,20.37
2018-07-04T02:05:01.604Z,20.49
2018-07-04T02:07:48.599Z,20.44
2018-07-04T02:10:35.471Z,20.28
2018-07-04T02:13:22.234Z,20.19
2018-07-04T02:16:08.874Z,20.36
2018-07-04T02:18:55.936Z,20.28
2018-07-04T02:21:42.627Z,20.40
2018-07-04T02:24:29.342Z,20.54
2018-07-04T02:27:16.374Z,20.59
2018-07-04T02:30:03.607Z,20.56
2018-07-04T02:32:50.399Z,20.59
2018-07-04T02:35:37.538Z,20.58
2018-07-04T02:38:24.534Z,20.52
2018-07-04T02:41:11.870Z,20.56
2018-07-04T02:43:58.496Z,20.49
2018-07-04T02:46:45.604Z,20.58
2018-07-04T02:49:32.350Z,20.29
2018-07-04T02:52:19.642Z,19.87
2018-07-04T02:55:06.223Z,19.96
2018-07-04T02:57:53.356Z,19.96
2018-07-04T03:00:40.258Z,19.83
2018-07-04T03:03:27.386Z,19.60
2018-07-04T03:06:14.300Z,19.25
2018-07-04T03:09:01.382Z,19.60
2018-07-04T03:11:48.366Z,19.62
2018-07-04T03:14:35.415Z,19.76
2018-07-04T03:17:21.817Z,19.87
2018-07-04T03:20:08.832Z,19.95
2018-07-04T03:22:55.687Z,19.91
2018-07-04T03:25:43.014Z,19.85
2018-07-04T03:28:29.578Z,19.77
2018-07-04T03:31:16.448Z,19.82
2018-07-04T03:34:03.298Z,19.99
2018-07-04T03:36:50.079Z,20.06
2018-07-04T03:39:37.057Z,20.17
2018-07-04T03:42:24.413Z,20.30
2018-07-04T03:45:11.192Z,20.36
2018-07-04T03:47:58.517Z,20.57
2018-07-04T03:50:44.960Z,20.74
2018-07-04T03:53:32.204Z,20.90
2018-07-04T03:56:19.186Z,20.91
2018-07-04T03:59:06.200Z,20.88
2018-07-04T04:01:52.974Z,21.00
2018-07-04T04:04:40.219Z,21.08
2018-07-04T04:07:26.921Z,21.08
2018-07-04T04:10:14.162Z,21.34
2018-07-04T04:13:00.903Z,21.62
2018-07-04T04:15:48.196Z,21.69
2018-07-04T04:18:34.688Z,21.53
2018-07-04T04:21:21.923Z,21.61
2018-07-04T04:24:08.812Z,21.75
2018-07-04T04:26:55.811Z,21.85
2018-07-04T04:29:42.767Z,22.04
2018-07-04T04:32:29.672Z,22.00
2018-07-04T04:35:16.503Z,22.03
2018-07-04T04:38:03.559Z,22.28
2018-07-04T04:40:50.279Z,22.00
2018-07-04T04:43:37.354Z,22.20
2018-07-04T04:46:24.105Z,22.52
2018-07-04T04:49:10.838Z,22.61
2018-07-04T04:51:57.375Z,22.76
2018-07-04T04:54:43.890Z,22.78
2018-07-04T04:57:30.450Z,22.84
2018-07-04T05:00:17.250Z,22.75
2018-07-04T05:03:03.895Z,22.78
2018-07-04T05:05:50.759Z,23.03
2018-07-04T05:08:37.439Z,23.21
2018-07-04T05:11:24.642Z,23.29
2018-07-04T05:14:11.310Z,23.47
2018-07-04T05:16:57.609Z,23.54
2018-07-04T05:19:43.994Z,23.64
2018-07-04T05:22:30.555Z,23.94
2018-07-04T05:25:17.359Z,24.05
2018-07-04T05:28:04.366Z,24.26
2018-07-04T05:30:51.271Z,24.60
2018-07-04T05:33:38.218Z,24.73
2018-07-04T05:36:25.101Z,24.81
2018-07-04T05:39:12.112Z,24.86
2018-07-04T05:41:58.831Z,24.97
2018-07-04T05:44:45.950Z,25.06
2018-07-04T05:47:32.952Z,25.10
2018-07-04T05:50:20.107Z,25.16
2018-07-04T05:53:06.998Z,25.31
2018-07-04T05:55:54.336Z,25.39
2018-07-04T05:58:41.069Z,25.36
2018-07-04T06:01:28.387Z,25.60
2018-07-04T06:04:15.143Z,25.80
2018-07-04T06:07:02.368Z,25.75
2018-07-04T06:09:49.023Z,25.63
2018-07-04T06:12:36.227Z,26.06
2018-07-04T06:15:22.908Z,26.19
2018-07-04T06:18:10.158Z,25.96
2018-07-04T06:20:56.860Z,26.17
2018-07-04T06:23:43.994Z,26.37
2018-07-04T06:26:30.779Z,26.55
2018-07-04T06:29:17.929Z,26.78
2018-07-04T06:32:04.611Z,26.76
2018-07-04T06:34:51.552Z,26.66
2018-07-04T06:37:41.407Z,26.53
2018-07-04T06:40:10.621Z,26.44
2018-07-04T06:42:39.019Z,26.46
2018-07-04T06:45:06.932Z,26.48
2018-07-04T06:47:35.171Z,26.83
2018-07-04T06:50:03.212Z,26.85
2018-07-04T06:52:31.127Z,27.13
2018-07-04T06:54:59.385Z,27.19
2018-07-04T06:57:27.386Z,27.40
2018-07-04T06:59:55.452Z,27.33
2018-07-04T07:02:23.904Z,27.53
2018-07-04T07:05:04.649Z,27.52
2018-07-04T07:07:52.084Z,27.69
2018-07-04T07:10:38.968Z,27.59
2018-07-04T07:13:25.681Z,27.68
2018-07-04T07:16:12.076Z,27.67
2018-07-04T07:18:59.130Z,27.78
2018-07-04T07:21:45.675Z,28.12
2018-07-04T07:24:32.876Z,27.99
2018-07-04T07:27:19.648Z,28.13
2018-07-04T07:30:06.902Z,28.26
2018-07-04T07:32:53.687Z,28.19
2018-07-04T07:35:40.511Z,28.33
2018-07-04T07:38:27.359Z,28.38
2018-07-04T07:41:14.265Z,28.42
2018-07-04T07:44:00.752Z,28.66
2018-07-04T07:46:47.430Z,28.82
2018-07-04T07:49:34.302Z,28.59
2018-07-04T07:52:21.603Z,28.88
2018-07-04T07:55:08.695Z,29.00
2018-07-04T07:57:55.979Z,29.14
2018-07-04T08:00:42.831Z,29.36
2018-07-04T08:03:30.071Z,29.28
2018-07-04T08:06:16.976Z,29.58
2018-07-04T08:09:04.827Z,29.48
2018-07-04T08:11:51.250Z,29.51
2018-07-04T08:14:38.330Z,29.51
2018-07-04T08:17:25.232Z,29.52
2018-07-04T08:20:12.174Z,29.68
2018-07-04T08:22:59.163Z,29.63
2018-07-04T08:25:47.272Z,29.65
2018-07-04T08:28:33.907Z,29.80
2018-07-04T08:31:20.956Z,29.68
2018-07-04T08:34:07.746Z,29.66
2018-07-04T08:36:54.987Z,29.79
2018-07-04T08:39:41.779Z,29.53
2018-07-04T08:42:29.010Z,29.97
2018-07-04T08:45:15.539Z,30.01
2018-07-04T08:48:02.635Z,30.19
2018-07-04T08:50:49.587Z,30.29
2018-07-04T08:53:36.871Z,30.41
2018-07-04T08:56:23.594Z,30.69
2018-07-04T08:59:10.716Z,30.73
2018-07-04T09:01:57.555Z,30.92
2018-07-04T09:04:44.411Z,30.64
2018-07-04T09:07:30.827Z,31.02
2018-07-04T09:10:17.519Z,31.23
2018-07-04T09:13:03.932Z,31.27
2018-07-04T09:15:50.963Z,31.30
2018-07-04T09:18:37.610Z,31.23
2018-07-04T09:21:24.243Z,31.27
2018-07-04T09:24:11.158Z,31.36
2018-07-04T09:26:58.410Z,31.39
2018-07-04T09:29:45.177Z,31.53
2018-07-04T09:32:32.460Z,31.51
2018-07-04T09:35:19.235Z,31.75
2018-07-04T09:38:06.523Z,31.93
2018-07-04T09:40:52.962Z,32.04
2018-07-04T09:43:39.771Z,32.44
2018-07-04T09:46:26.597Z,32.68
2018-07-04T09:49:13.439Z,32.93
2018-07-04T09:52:00.424Z,32.90
2018-07-04T09:54:47.455Z,32.74
2018-07-04T09:57:34.256Z,32.87
2018-07-04T10:00:25.492Z,32.87
2018-07-04T10:03:12.077Z,33.01
2018-07-04T10:05:59.215Z,33.48
2018-07-04T10:08:46.009Z,33.48
2018-07-04T10:11:33.643Z,33.55
2018-07-04T10:14:20.169Z,33.83
2018-07-04T10:17:06.889Z,33.72
2018-07-04T10:19:53.601Z,33.59
2018-07-04T10:22:40.863Z,33.53
2018-07-04T10:25:27.742Z,33.40
2018-07-04T10:28:14.935Z,33.22
2018-07-04T10:31:01.711Z,33.00
2018-07-04T10:33:49.624Z,32.99
2018-07-04T10:36:36.378Z,32.97
2018-07-04T10:39:23.713Z,32.96
2018-07-04T10:42:10.207Z,33.05
2018-07-04T10:44:56.549Z,33.50
2018-07-04T10:47:43.056Z,33.72
2018-07-04T10:50:29.619Z,33.92
2018-07-04T10:53:16.528Z,33.84
2018-07-04T10:56:03.120Z,33.97
2018-07-04T10:58:50.092Z,34.12
2018-07-04T11:01:36.696Z,34.04
2018-07-04T11:04:23.878Z,34.30
2018-07-04T11:07:10.441Z,34.53
2018-07-04T11:09:57.209Z,34.87
2018-07-04T11:12:44.432Z,35.26
2018-07-04T11:15:30.723Z,34.84
2018-07-04T11:18:17.580Z,34.94
2018-07-04T11:21:04.449Z,34.77
2018-07-04T11:23:51.368Z,34.95
2018-07-04T11:26:38.231Z,34.79
2018-07-04T11:29:25.603Z,34.47
2018-07-04T11:32:12.620Z,34.40
2018-07-04T11:34:59.534Z,34.48
2018-07-04T11:37:46.370Z,34.91
2018-07-04T11:40:33.731Z,34.80
2018-07-04T11:43:20.894Z,35.09
2018-07-04T11:45:58.015Z,35.37
2018-07-04T11:48:26.152Z,34.66
2018-07-04T11:50:56.132Z,34.39
2018-07-04T11:53:24.431Z,34.47
2018-07-04T11:55:52.556Z,34.15
2018-07-04T11:58:20.686Z,32.19
2018-07-04T12:00:49.138Z,30.91
2018-07-04T12:03:18.784Z,30.53
2018-07-04T12:05:59.809Z,29.93
2018-07-04T12:08:34.001Z,29.46
2018-07-04T12:11:02.555Z,29.31
2018-07-04T12:13:30.555Z,29.29
2018-07-04T12:15:58.606Z,29.04
2018-07-04T12:18:26.919Z,28.86
2018-07-04T12:20:54.991Z,28.99
2018-07-04T12:23:23.066Z,29.39
2018-07-04T12:25:51.492Z,29.67
2018-07-04T12:28:19.609Z,30.04
2018-07-04T12:30:47.700Z,30.50
2018-07-04T12:33:16.333Z,30.96
2018-07-04T12:35:44.458Z,31.55
2018-07-04T12:38:12.670Z,31.82
2018-07-04T12:40:40.729Z,32.72
2018-07-04T12:43:08.781Z,31.26
2018-07-04T12:45:39.547Z,32.47
2018-07-04T12:48:05.140Z,32.81
2018-07-04T12:50:34.003Z,32.95
2018-07-04T12:53:02.346Z,33.47
2018-07-04T12:55:44.754Z,33.69
2018-07-04T12:58:31.589Z,33.20
2018-07-04T13:01:18.884Z,33.55
2018-07-04T13:04:05.652Z,34.67
2018-07-04T13:06:53.028Z,34.72
2018-07-04T13:09:39.839Z,35.46
2018-07-04T13:12:27.300Z,36.04
2018-07-04T13:15:13.940Z,36.30
2018-07-04T13:18:00.992Z,36.36
2018-07-04T13:20:47.960Z,36.18
2018-07-04T13:23:35.233Z,36.00
2018-07-04T13:26:22.068Z,35.50
2018-07-04T13:29:09.237Z,35.63
2018-07-04T13:31:56.012Z,35.29
2018-07-04T13:34:43.257Z,34.73
2018-07-04T13:37:30.053Z,34.54
2018-07-04T13:40:16.714Z,34.19
2018-07-04T13:43:04.228Z,34.30
2018-07-04T13:45:51.179Z,34.07
2018-07-04T13:48:37.807Z,33.37
2018-07-04T13:51:24.770Z,32.98
2018-07-04T13:54:11.600Z,32.54
2018-07-04T13:56:58.653Z,32.48
2018-07-04T13:59:45.519Z,32.47
2018-07-04T14:02:32.431Z,32.74
2018-07-04T14:05:19.201Z,33.13
2018-07-04T14:08:06.371Z,33.25
2018-07-04T14:10:52.770Z,32.76
2018-07-04T14:13:39.643Z,32.72
2018-07-04T14:16:25.969Z,32.23
2018-07-04T14:19:13.208Z,32.17
2018-07-04T14:22:00.038Z,32.21
2018-07-04T14:24:47.402Z,32.18
2018-07-04T14:27:34.147Z,32.35
2018-07-04T14:30:20.926Z,32.21
2018-07-04T14:33:07.987Z,31.94
2018-07-04T14:35:55.072Z,32.06
2018-07-04T14:38:42.120Z,32.44
2018-07-04T14:41:28.810Z,32.92
2018-07-04T14:44:15.268Z,32.92
2018-07-04T14:47:02.027Z,33.10
2018-07-04T14:49:48.957Z,32.75
2018-07-04T14:52:35.876Z,31.74
2018-07-04T14:55:22.633Z,31.99
2018-07-04T14:58:09.904Z,31.73
2018-07-04T15:00:56.602Z,30.85
2018-07-04T15:03:44.144Z,30.44
2018-07-04T15:06:31.264Z,29.64
2018-07-04T15:09:18.590Z,28.84
2018-07-04T15:12:05.157Z,27.64
2018-07-04T15:14:52.119Z,26.74
2018-07-04T15:17:39.240Z,26.42
2018-07-04T15:20:26.245Z,24.83
2018-07-04T15:23:13.272Z,22.68
2018-07-04T15:26:00.688Z,21.89
2018-07-04T15:28:47.908Z,21.70
2018-07-04T15:31:35.334Z,21.27
2018-07-04T15:34:22.937Z,20.68
2018-07-04T15:37:10.032Z,20.27
2018-07-04T15:39:56.692Z,20.11
2018-07-04T15:42:43.775Z,20.69
2018-07-04T15:45:30.943Z,20.17
2018-07-04T15:48:18.324Z,19.56
2018-07-04T15:51:05.494Z,19.42
2018-07-04T15:53:53.224Z,19.51
2018-07-04T15:56:40.637Z,19.49
2018-07-04T15:59:28.035Z,19.45
2018-07-04T16:02:14.976Z,19.45
2018-07-04T16:05:02.505Z,19.44
2018-07-04T16:07:49.744Z,19.43
2018-07-04T16:10:37.393Z,19.58
2018-07-04T16:13:24.074Z,19.74
2018-07-04T16:16:11.292Z,19.69
2018-07-04T16:18:58.509Z,19.49
2018-07-04T16:21:46.135Z,19.44
2018-07-04T16:24:33.321Z,19.28
2018-07-04T16:27:20.894Z,19.15
2018-07-04T16:30:08.419Z,19.08
2018-07-04T16:32:55.843Z,19.15
2018-07-04T16:35:42.997Z,19.15
2018-07-04T16:38:29.970Z,19.30
2018-07-04T16:41:16.650Z,19.42
2018-07-04T16:44:04.324Z,19.50
2018-07-04T16:46:51.240Z,19.34
2018-07-04T16:49:38.972Z,19.37
2018-07-04T16:52:26.277Z,19.35
2018-07-04T16:55:13.715Z,19.44
2018-07-04T16:58:00.839Z,19.37
2018-07-04T17:00:48.369Z,19.65
2018-07-04T17:03:35.589Z,19.81
2018-07-04T17:06:23.313Z,19.75
2018-07-04T17:09:10.169Z,19.75
2018-07-04T17:11:57.269Z,19.66
2018-07-04T17:14:44.580Z,19.81
2018-07-04T17:17:31.668Z,19.93
2018-07-04T17:20:18.786Z,20.02
2018-07-04T17:23:06.653Z,20.01
2018-07-04T17:25:53.874Z,19.97
2018-07-04T17:28:41.218Z,19.97
2018-07-04T17:31:28.430Z,20.07
2018-07-04T17:34:15.684Z,20.15
2018-07-04T17:37:02.861Z,20.18
2018-07-04T17:39:49.658Z,20.26
2018-07-04T17:42:37.040Z,20.34
2018-07-04T17:45:24.689Z,20.44
2018-07-04T17:48:11.854Z,20.38
2018-07-04T17:50:59.454Z,20.51
2018-07-04T17:53:47.023Z,20.57
2018-07-04T17:56:34.648Z,20.61
2018-07-04T17:59:21.968Z,20.75
2018-07-04T18:02:09.392Z,20.75
2018-07-04T18:04:56.817Z,20.40
2018-07-04T18:07:45.043Z,19.87
2018-07-04T18:10:32.490Z,19.58
2018-07-04T18:13:20.682Z,19.42
2018-07-04T18:16:07.975Z,19.57
2018-07-04T18:18:55.572Z,19.38
2018-07-04T18:21:42.709Z,19.36
2018-07-04T18:24:30.144Z,19.26
2018-07-04T18:27:17.013Z,19.26
2018-07-04T18:30:04.196Z,19.09
2018-07-04T18:32:51.033Z,19.19
2018-07-04T18:35:38.739Z,19.07
2018-07-04T18:38:25.964Z,19.05
2018-07-04T18:41:13.772Z,19.04
2018-07-04T18:44:00.925Z,19.16
2018-07-04T18:46:48.417Z,19.20
2018-07-04T18:49:35.655Z,19.18
2018-07-04T18:52:22.724Z,19.26
2018-07-04T18:55:09.419Z,19.29
2018-07-04T18:57:56.495Z,19.30
2018-07-04T19:00:43.356Z,19.58
2018-07-04T19:03:31.045Z,19.87
2018-07-04T19:06:18.392Z,19.89
2018-07-04T19:09:06.906Z,19.87
2018-07-04T19:11:54.132Z,19.76
2018-07-04T19:14:41.798Z,19.72
2018-07-04T19:17:29.291Z,19.54
2018-07-04T19:20:17.022Z,19.78
2018-07-04T19:23:04.434Z,19.73
2018-07-04T19:25:51.094Z,19.59
2018-07-04T19:28:38.203Z,19.50
2018-07-04T19:31:24.943Z,19.47
2018-07-04T19:34:12.218Z,19.33
2018-07-04T19:36:58.878Z,19.11
2018-07-04T19:39:46.047Z,19.18
2018-07-04T19:42:32.725Z,19.12
2018-07-04T19:45:19.696Z,19.09
2018-07-04T19:48:06.625Z,19.27
2018-07-04T19:50:53.529Z,19.30
2018-07-04T19:53:39.934Z,19.16
2018-07-04T19:56:26.663Z,19.55
2018-07-04T19:59:13.078Z,19.66
2018-07-04T20:02:00.116Z,19.64
2018-07-04T20:04:46.778Z,19.46
2018-07-04T20:07:33.978Z,19.42
2018-07-04T20:10:20.768Z,19.45
2018-07-04T20:13:07.676Z,19.39
2018-07-04T20:15:54.271Z,19.35
2018-07-04T20:18:41.160Z,19.39
2018-07-04T20:21:28.039Z,19.27
2018-07-04T20:24:15.250Z,19.23
2018-07-04T20:27:01.767Z,19.23
2018-07-04T20:29:48.781Z,19.29
2018-07-04T20:32:35.817Z,19.35
2018-07-04T20:35:22.920Z,19.30
2018-07-04T20:38:09.490Z,19.20
2018-07-04T20:40:56.746Z,19.29
2018-07-04T20:43:43.535Z,19.27
2018-07-04T20:46:30.466Z,19.25
2018-07-04T20:49:17.701Z,19.23
2018-07-04T20:52:04.583Z,19.07
2018-07-04T20:54:51.568Z,18.85
2018-07-04T20:57:37.880Z,18.96
2018-07-04T21:00:24.952Z,18.94
2018-07-04T21:03:11.664Z,19.16
2018-07-04T21:05:58.661Z,19.37
2018-07-04T21:08:45.303Z,19.38
2018-07-04T21:11:32.594Z,19.47
2018-07-04T21:14:19.118Z,19.35
2018-07-04T21:17:06.012Z,19.05
2018-07-04T21:19:52.747Z,19.31
2018-07-04T21:22:40.248Z,19.32
2018-07-04T21:25:26.819Z,19.34
2018-07-04T21:28:13.579Z,19.23
2018-07-04T21:31:00.472Z,19.12
2018-07-04T21:33:47.904Z,19.11
2018-07-04T21:36:34.796Z,19.11
2018-07-04T21:39:21.965Z,19.12
2018-07-04T21:42:08.718Z,18.92
2018-07-04T21:44:55.563Z,18.77
2018-07-04T21:47:42.654Z,18.68
2018-07-04T21:50:29.966Z,18.68
2018-07-04T21:53:16.423Z,18.66
2018-07-04T21:56:02.880Z,19.00
2018-07-04T21:58:49.742Z,19.06
2018-07-04T22:01:36.947Z,19.08
2018-07-04T22:04:23.512Z,19.01
2018-07-04T22:07:10.928Z,18.85
2018-07-04T22:09:57.666Z,18.91
2018-07-04T22:12:44.748Z,18.82
2018-07-04T22:15:31.446Z,18.69
2018-07-04T22:18:18.530Z,18.46
2018-07-04T22:21:05.096Z,18.43
2018-07-04T22:23:51.934Z,18.62
2018-07-04T22:26:38.286Z,18.72
2018-07-04T22:29:24.839Z,18.77
2018-07-04T22:32:11.411Z,18.83
2018-07-04T22:34:58.075Z,18.85
2018-07-04T22:37:45.485Z,18.81
2018-07-04T22:40:32.190Z,18.69
2018-07-04T22:43:19.330Z,18.58
2018-07-04T22:46:06.134Z,18.69
2018-07-04T22:48:52.834Z,18.68
2018-07-04T22:51:39.650Z,18.62
2018-07-04T22:54:26.219Z,18.31
2018-07-04T22:57:12.860Z,18.19
2018-07-04T23:00:00.179Z,18.20
2018-07-04T23:02:46.902Z,18.16
2018-07-04T23:05:34.134Z,18.40
2018-07-04T23:08:21.143Z,18.47
2018-07-04T23:11:08.067Z,18.62
2018-07-04T23:13:54.859Z,18.62
2018-07-04T23:16:42.106Z,18.54
2018-07-04T23:19:28.526Z,18.63
2018-07-04T23:22:15.318Z,18.64
2018-07-04T23:25:02.004Z,18.71
2018-07-04T23:27:48.763Z,18.55
2018-07-04T23:30:35.518Z,18.53
2018-07-04T23:33:22.433Z,18.32
2018-07-04T23:36:09.686Z,18.57
2018-07-04T23:38:56.472Z,18.73
2018-07-04T23:41:43.919Z,18.73
2018-07-04T23:44:30.495Z,18.71
2018-07-04T23:47:17.315Z,18.59
2018-07-04T23:50:03.648Z,18.63
2018-07-04T23:52:50.371Z,18.66
2018-07-04T23:55:37.236Z,18.74
2018-07-04T23:58:24.586Z,18.68
